Nearby METAR Reports

 

YMER - Merimbula Arpt, Australia
Distance from station: SE 12km
Updated: Sat, 15-Dec-2018 11:19am AEDT
Partly cloudy
Partly cloudy
 Wind from NE
Wind: NE 9 km/h
Temperature: 22°C
Dew Point: 20°C
Humidity: 88%
Barometer: 1007 hPa
Clouds: Partly cloudy
Visibility: 10 km
Cloud details: Partly cloudy 213 m
Partly cloudy 457 m
2018/12/15 00:19 YMER 150019Z AUTO 05005KT 9999 // SCT007 SCT015 22/20 Q1007
YCOM - Cooma Snowy Mtns, Australia
Distance from station: NW 96km
Updated: Sat, 15-Dec-2018 11:00am AEDT
Partly cloudy
Partly cloudy
 Wind from N
Wind: N 28 km/h
Temperature: 20°C
Dew Point: 12°C
Humidity: 60%
Barometer: 1009 hPa
Clouds: Partly cloudy
Visibility: 10 km
Cloud details: Partly cloudy 1036 m
Partly cloudy 1372 m
Partly cloudy 1615 m
2018/12/15 00:00 YCOM 150000Z AUTO 01015KT 9999 // SCT034 SCT045 SCT053 20/12 Q1009
 
YSCB - Canberra (civ/Mi, Australia
Distance from station: NNW 182km
Updated: Sat, 15-Dec-2018 11:00am AEDT
Few Clouds
Few Clouds
 Wind from N
Wind: N 26 km/h
Temperature: 24°C
Dew Point: 11°C
Humidity: 44%
Barometer: 1008 hPa
Clouds: Few Clouds
Visibility: 9 km
Cloud details: Few Clouds 914 m
2018/12/15 00:00 YSCB 150000Z 35014KT 9000 FEW030 24/11 Q1008
YSNW - Nowra (aus-Navy), Australia
Distance from station: NNE 219km
Updated: Sat, 15-Dec-2018 11:00am AEDT
Clear
Clear
 Wind from NNE
Wind: NNE 9 km/h
Temperature: 26°C
Dew Point: 21°C
Humidity: 74%
Barometer: 1007 hPa
Clouds: Clear
Visibility: 10 km
2018/12/15 00:00 YSNW 150000Z AUTO 03005KT 360V060 9999 // NCD 26/21 Q1007
 
YMAY - Albury Airport, Australia
Distance from station: WNW 271km
Updated: Sat, 15-Dec-2018 11:00am AEDT
Clear
Clear
 Wind from NNE
Wind: NNE 20 km/h
Temperature: 24°C
Dew Point: 15°C
Humidity: 57%
Barometer: 1005 hPa
Clouds: Clear
Visibility: 10 km
2018/12/15 00:00 YMAY 150000Z AUTO 02011KT 9999 // NCD 24/15 Q1005
YSWG - Wagga Wagga(Cv/M, Australia
Distance from station: NW 283km
Updated: Sat, 15-Dec-2018 11:00am AEDT
Clear
Clear
 Wind from E
Wind: E 6 km/h
Temperature: 19°C
Dew Point: 12°C
Humidity: 64%
Barometer: 1007 hPa
Clouds: Clear
Visibility: 10 km
2018/12/15 00:00 YSWG 150000Z AUTO 08003KT 9999 // NCD 19/12 Q1007
 
YWGT - Wangaratta Arp, Australia
Distance from station: W 317km
Updated: Sat, 15-Dec-2018 11:00am AEDT
Clear
Clear
 Wind from N
Wind: N 13 km/h
Temperature: 22°C
Dew Point: 16°C
Humidity: 69%
Barometer: 1005 hPa
Clouds: Clear
Visibility: 10 km
2018/12/15 00:00 YWGT 150000Z AUTO 36007KT 9999 // NCD 22/16 Q1005
YSSY - Sydney Intl Airp, Australia
Distance from station: NNE 343km
Updated: Sat, 15-Dec-2018 11:00am AEDT
Partly cloudy
Partly cloudy
 Wind from NE
Wind: NE 15 km/h
Temperature: 26°C
Dew Point: 21°C
Humidity: 74%
Barometer: 1007 hPa
Clouds: Partly cloudy
Visibility: 10 km
Cloud details: Few Clouds 610 m
Partly cloudy 1524 m
2018/12/15 00:00 YSSY 150000Z 05008KT 9999 FEW020 SCT050 26/21 Q1007